San José, CA

14:09 PDT le 25 octobre 2014 (GMT -0700)
Moffett Federal Air Field | Change Station
CLOSE
Current Station
Aéroport
Location: Moffett NAS,
Altitude: 39 ft
Stations météo à proximité

Alt. 39 ft 37.41 °N, 122.05 °W | Updated 13 minutes ago

Couvert
Couvert
72 ° F
Paraît 72 ° F
N
9
Vent Variable Vent de Ouest

Aujourd'hui
Haut(e) -- | Bas -- ° F
--% Risque de précip.
Hier
Haut(e) -- | Bas -- ° F
Precip. -- pouce
7:25 AM 6:17 PM
Lune montante, 4% visible
Pression 30.08 pouce
Visibilité 10.0 Miles terrestres
Nuages Nuages épars 4700 ft
Nuages épars 6000 ft
Point de rosée 53 ° F
Humidité 51%
Précipitations 0.10 pouce
Profondeur de la couche neigeuse Non disponible.
UV 4 sur 12
Pollen .10 sur 12
Ozone Bon
PM2.5 Bon
Flu Activity Sporadic
METAR KNUQ 252056Z 26008KT 10SM SCT047 SCT060 22/12 A3007 RMK AO2 SLP186 T02220117 50003

More Conditions Fewer Conditions

Pression 30.08 pouce
Visibilité 10.0 Miles terrestres
Nuages Nuages épars 4700 ft
Nuages épars 6000 ft
Point de rosée 53 ° F
Humidité 51%
Précipitations 0.10 pouce
Profondeur de la couche neigeuse Non disponible.
UV 4 sur 12
Pollen .10 sur 12
Ozone Bon
PM2.5 Bon
Flu Activity Sporadic
METAR KNUQ 252056Z 26008KT 10SM SCT047 SCT060 22/12 A3007 RMK AO2 SLP186 T02220117 50003

More Conditions Fewer Conditions

10-Day Weather Forecast

Almanac

Astronomie

Oct. 25, 2014 Lever Coucher
Temps réel 07:25 PDT 18:17 PDT
Crépuscule civil 06:58 PDT 18:44 PDT
Crépuscule nautique 06:28 PDT 19:14 PDT
Crépuscule astronomique 05:57 PDT 19:44 PDT
Lune 09:07 PDT 19:46 PDT
Durée de lumière visible 11h 45m
Longueur du jour
10h 52m
Tomorrow will be 2m 11s shorter.
Lune montante, 4% of the Moon is Illuminated
Aujourd'hui
Lune montante
Oct 30
Premier quartier
Nov 6
Pleine lune
Nov 14
Dernier quartier
Nov 22
Nouveau

Extrêmes aujourd'hui

State Highs State Lows

Community

WunderPhotos

Upload Photos

1,764,996 Photos téléchargées !

Nearby

Qualité de l'air

  Qualité de l'air Indice de la qualité de l'air Polluant
Hier Bon
OZONE
Hier Bon
PM2.5
Actuel Bon
OZONE
Actuel Bon
PM2.5
samedi Bon
OZONE
dimanche Bon
OZONE
lundi Bon
PM2.5
mardi Moyen
PM2.5
mercredi Moyen
PM2.5

Épaisseur de neige

Station Depth Altitude
Forestdale Creek 0 in 8029 ft
Leavitt Lake 0 in 9400 ft
Sonora Pass 0 in 8800 ft
Echo Peak 0 in 7800 ft
Leavitt Meadows 0 in 7200 ft

Activité sismique

Ville Distance Mag. Time & Date
Antioch, California 46 Miles terrestres 2.7 06:42 PDT
2014-10-25
Deer Park, California 84 Miles terrestres 2.8 06:40 PDT
2014-10-25
Coalinga, California 124 Miles terrestres 2.5 23:01 PDT
2014-10-24
Minimum magnitude displayed is 2.5.

Températures des eaux côtières

Lieu Température
Aucun rapport de station

Stations météo à proximité